Time;durP1;ratioP1;P1;durP2;ratioP2;P2;SDS_P1;SDS_P2;PMS_P1;PMS_P2;Temp;Humidity;BMP_temperature;BMP_pressure;BME280_temperature;BME280_humidity;BME280_pressure;Samples;Min_cycle;Max_cycle;Signal;HPM_P1;HPM_P2
2022/07/17 00:01:50;;;;;;;;;;;;;;;;;;4954310;29;19998;-82
2022/07/17 00:04:16;;;;;;;;;;;;;;;;;;4952845;29;19921;-81
2022/07/17 00:06:41;;;;;;;;;;;;;;;;;;4968106;28;20318;-81
2022/07/17 00:09:07;;;;;;;;;;;;;;;;;;4968916;28;19918;-81
2022/07/17 00:11:32;;;;;;;;;;;;;;;;;;4953105;29;20343;-81
2022/07/17 00:13:57;;;;;;;;;;;;;;;;;;4952577;28;20346;-81
2022/07/17 00:16:23;;;;;;;;;;;;;;;;;;4952973;29;19921;-81
2022/07/17 00:18:48;;;;;;;;;;;;;;;;;;4952660;29;20297;-81
2022/07/17 00:21:14;;;;;;;;;;;;;;;;;;4952618;29;19917;-81
2022/07/17 00:23:39;;;;;;;;;;;;;;;;;;4952283;29;19915;-81
2022/07/17 00:26:05;;;;;;;;;;;;;;;;;;4953616;29;20178;-80
2022/07/17 00:28:30;;;;;;;;;;;;;;;;;;4952916;29;19921;-81
2022/07/17 00:30:55;;;;;;;;;;;;;;;;;;4970709;28;19914;-81
2022/07/17 00:33:21;;;;;;;;;;;;;;;;;;4972808;28;20001;-82
2022/07/17 00:35:46;;;;;;;;;;;;;;;;;;4956508;29;19914;-80
2022/07/17 00:38:13;;;;;;;;;;;;;;;;;;4956561;29;19926;-80
2022/07/17 00:40:38;;;;;;;;;;;;;;;;;;4955561;29;20400;-81
2022/07/17 00:43:04;;;;;;;;;;;;;;;;;;4956145;29;19914;-80
2022/07/17 00:45:29;;;;;;;;;;;;;;;;;;4956212;29;20017;-80
2022/07/17 00:47:55;;;;;;;;;;;;;;;;;;4956066;29;19993;-80
2022/07/17 00:50:20;;;;;;;;;;;;;;;;;;4956543;29;19946;-80
2022/07/17 00:52:46;;;;;;;;;;;;;;;;;;4969003;28;19954;-81
2022/07/17 00:55:11;;;;;;;;;;;;;;;;;;4958522;28;19910;-81
2022/07/17 00:57:37;;;;;;;;;;;;;;;;;;4956061;29;19919;-80
2022/07/17 01:00:02;;;;;;;;;;;;;;;;;;4955475;29;19914;-81
2022/07/17 01:02:27;;;;;;;;;;;;;;;;;;4972030;28;19922;-81
2022/07/17 01:04:53;;;;;;;;;;;;;;;;;;4939756;29;20286;-81
2022/07/17 01:07:18;;;;;;;;;;;;;;;;;;4957103;28;19919;-80
2022/07/17 01:09:44;;;;;;;;;;;;;;;;;;4971863;28;19914;-80
2022/07/17 01:12:09;;;;;;;;;;;;;;;;;;4956917;29;19915;-80
2022/07/17 01:14:35;;;;;;;;;;;;;;;;;;4939751;29;19910;-81
2022/07/17 01:17:00;;;;;;;;;;;;;;;;;;4955895;29;20396;-81
2022/07/17 01:19:26;;;;;;;;;;;;;;;;;;4957047;29;19946;-81
2022/07/17 01:21:51;;;;;;;;;;;;;;;;;;4956741;29;19914;-81
2022/07/17 01:24:16;;;;;;;;;;;;;;;;;;4971558;28;19946;-80
2022/07/17 01:26:42;;;;;;;;;;;;;;;;;;4987637;28;19921;-81
2022/07/17 01:29:07;;;;;;;;;;;;;;;;;;4971634;28;19932;-80
2022/07/17 01:31:33;;;;;;;;;;;;;;;;;;4954947;29;20663;-82
2022/07/17 01:33:58;;;;;;;;;;;;;;;;;;4956597;29;20289;-81
2022/07/17 01:36:23;;;;;;;;;;;;;;;;;;4955316;29;19910;-81
2022/07/17 01:38:49;;;;;;;;;;;;;;;;;;4956622;28;20009;-81
2022/07/17 01:41:14;;;;;;;;;;;;;;;;;;4956323;28;19968;-80
2022/07/17 01:43:39;;;;;;;;;;;;;;;;;;4970627;28;19942;-81
2022/07/17 01:46:05;;;;;;;;;;;;;;;;;;4971426;28;19954;-82
2022/07/17 01:48:30;;;;;;;;;;;;;;;;;;4960095;28;19937;-81
2022/07/17 01:50:56;;;;;;;;;;;;;;;;;;4967091;28;20404;-82
2022/07/17 01:53:21;;;;;;;;;;;;;;;;;;4969193;28;19914;-80
2022/07/17 01:58:40;;;;;;;;;;;;;;;;;;4955107;29;19961;-82
2022/07/17 02:01:06;;;;;;;;;;;;;;;;;;4939621;29;19915;-81
2022/07/17 02:03:31;;;;;;;;;;;;;;;;;;4955300;29;19910;-81
2022/07/17 02:05:56;;;;;;;;;;;;;;;;;;4970476;28;19918;-81
2022/07/17 02:08:22;;;;;;;;;;;;;;;;;;4939121;29;19953;-82
2022/07/17 02:10:47;;;;;;;;;;;;;;;;;;4971119;28;19933;-82
2022/07/17 02:13:13;;;;;;;;;;;;;;;;;;4970814;28;20404;-82
2022/07/17 02:15:38;;;;;;;;;;;;;;;;;;4954692;29;20385;-82
2022/07/17 02:18:03;;;;;;;;;;;;;;;;;;4970842;28;19914;-81
2022/07/17 02:20:32;;;;;;;;;;;;;;;;;;4954817;29;20433;-80
2022/07/17 02:22:57;;;;;;;;;;;;;;;;;;4955235;28;19915;-81
2022/07/17 02:25:23;;;;;;;;;;;;;;;;;;4970563;28;19926;-81
2022/07/17 02:27:48;;;;;;;;;;;;;;;;;;4970586;28;20445;-80
2022/07/17 02:30:14;;;;;;;;;;;;;;;;;;4954807;29;20341;-81
2022/07/17 02:32:39;;;;;;;;;;;;;;;;;;4954555;28;19914;-83
2022/07/17 02:35:05;;;;;;;;;;;;;;;;;;4955700;29;20271;-81
2022/07/17 02:37:30;;;;;;;;;;;;;;;;;;4955791;29;20307;-83
2022/07/17 02:39:55;;;;;;;;;;;;;;;;;;4954126;29;20294;-83
2022/07/17 02:42:21;;;;;;;;;;;;;;;;;;4938509;29;19910;-83
2022/07/17 02:44:46;;;;;;;;;;;;;;;;;;4937994;29;20009;-83
2022/07/17 02:47:12;;;;;;;;;;;;;;;;;;4954548;29;19922;-84
2022/07/17 02:49:37;;;;;;;;;;;;;;;;;;4954645;29;20410;-82
2022/07/17 02:52:03;;;;;;;;;;;;;;;;;;4954015;29;19910;-84
2022/07/17 02:54:28;;;;;;;;;;;;;;;;;;4955004;28;20389;-84
2022/07/17 02:56:53;;;;;;;;;;;;;;;;;;4985340;28;19914;-82
2022/07/17 02:59:19;;;;;;;;;;;;;;;;;;4954102;29;19973;-83
2022/07/17 03:01:44;;;;;;;;;;;;;;;;;;4953957;28;19968;-83
2022/07/17 03:04:09;;;;;;;;;;;;;;;;;;4969858;28;19914;-83
2022/07/17 03:06:37;;;;;;;;;;;;;;;;;;4954778;29;19923;-84
2022/07/17 03:09:03;;;;;;;;;;;;;;;;;;4953672;29;20401;-82
2022/07/17 03:11:28;;;;;;;;;;;;;;;;;;4953646;29;19914;-83
2022/07/17 03:13:53;;;;;;;;;;;;;;;;;;4952949;29;20334;-83
2022/07/17 03:16:19;;;;;;;;;;;;;;;;;;4953962;29;19915;-83
2022/07/17 03:18:44;;;;;;;;;;;;;;;;;;4954042;29;19964;-82
2022/07/17 03:21:09;;;;;;;;;;;;;;;;;;4954799;29;19914;-82
2022/07/17 03:23:35;;;;;;;;;;;;;;;;;;4953454;29;19914;-83
2022/07/17 03:26:00;;;;;;;;;;;;;;;;;;4969569;28;19918;-84
2022/07/17 03:28:26;;;;;;;;;;;;;;;;;;4953627;29;20292;-83
2022/07/17 03:30:51;;;;;;;;;;;;;;;;;;4953049;29;19915;-83
2022/07/17 03:33:16;;;;;;;;;;;;;;;;;;4985705;28;19914;-84
2022/07/17 03:35:42;;;;;;;;;;;;;;;;;;4954625;29;19918;-83
2022/07/17 03:38:07;;;;;;;;;;;;;;;;;;4969371;28;19965;-84
2022/07/17 03:40:33;;;;;;;;;;;;;;;;;;4969792;28;19914;-84
2022/07/17 03:42:58;;;;;;;;;;;;;;;;;;4953237;29;20002;-84
2022/07/17 03:45:24;;;;;;;;;;;;;;;;;;4953243;29;20398;-84
2022/07/17 03:47:49;;;;;;;;;;;;;;;;;;4953111;29;19978;-83
2022/07/17 03:50:14;;;;;;;;;;;;;;;;;;4954675;29;19917;-82
2022/07/17 03:52:40;;;;;;;;;;;;;;;;;;4953243;28;19941;-83
2022/07/17 03:55:05;;;;;;;;;;;;;;;;;;4953788;29;20005;-84
2022/07/17 03:57:30;;;;;;;;;;;;;;;;;;4953876;29;19921;-82
2022/07/17 03:59:56;;;;;;;;;;;;;;;;;;4969826;28;19957;-83
2022/07/17 04:02:21;;;;;;;;;;;;;;;;;;4953869;29;19914;-83
2022/07/17 04:04:46;;;;;;;;;;;;;;;;;;4952299;28;20403;-84
2022/07/17 04:07:26;;;;;;;;;;;;;;;;;;4967796;23;20829;-85
2022/07/17 04:09:52;;;;;;;;;;;;;;;;;;4989927;28;19941;-85
2022/07/17 04:12:17;;;;;;;;;;;;;;;;;;4974206;28;20365;-85
2022/07/17 04:14:42;;;;;;;;;;;;;;;;;;4970583;28;20373;-86
2022/07/17 04:17:08;;;;;;;;;;;;;;;;;;4971898;28;19930;-85
2022/07/17 04:19:33;;;;;;;;;;;;;;;;;;4987159;28;19925;-85
2022/07/17 04:21:58;;;;;;;;;;;;;;;;;;4977168;28;20006;-86
2022/07/17 04:24:24;;;;;;;;;;;;;;;;;;4976800;28;19914;-86
2022/07/17 04:26:49;;;;;;;;;;;;;;;;;;4960765;28;19914;-85
2022/07/17 04:29:15;;;;;;;;;;;;;;;;;;4961317;28;20433;-84
2022/07/17 04:31:40;;;;;;;;;;;;;;;;;;4976573;28;20323;-85
2022/07/17 04:34:06;;;;;;;;;;;;;;;;;;4974976;28;20424;-85
2022/07/17 04:36:31;;;;;;;;;;;;;;;;;;4976016;28;19914;-84
2022/07/17 04:38:57;;;;;;;;;;;;;;;;;;4960407;28;20049;-84
2022/07/17 04:41:22;;;;;;;;;;;;;;;;;;4959632;28;19976;-84
2022/07/17 04:43:47;;;;;;;;;;;;;;;;;;4958910;28;19921;-86
2022/07/17 04:46:13;;;;;;;;;;;;;;;;;;4977251;28;20333;-85
2022/07/17 04:48:38;;;;;;;;;;;;;;;;;;4975429;28;19921;-85
2022/07/17 04:51:04;;;;;;;;;;;;;;;;;;4975869;28;19920;-85
2022/07/17 04:53:30;;;;;;;;;;;;;;;;;;4957659;28;19993;-84
2022/07/17 04:55:55;;;;;;;;;;;;;;;;;;4974243;28;20428;-84
2022/07/17 04:58:21;;;;;;;;;;;;;;;;;;4975550;28;19954;-85
2022/07/17 05:00:47;;;;;;;;;;;;;;;;;;4974236;28;19921;-84
2022/07/17 05:03:13;;;;;;;;;;;;;;;;;;4974631;28;20289;-84
2022/07/17 05:05:40;;;;;;;;;;;;;;;;;;4975088;28;19918;-83
2022/07/17 05:08:05;;;;;;;;;;;;;;;;;;4956700;28;19969;-84
2022/07/17 05:10:31;;;;;;;;;;;;;;;;;;4972222;28;19953;-85
2022/07/17 05:12:56;;;;;;;;;;;;;;;;;;4972935;28;20005;-85
2022/07/17 05:15:22;;;;;;;;;;;;;;;;;;4972987;28;19958;-85
2022/07/17 05:17:47;;;;;;;;;;;;;;;;;;4957180;28;20333;-85
2022/07/17 05:20:12;;;;;;;;;;;;;;;;;;4959509;28;20008;-84
2022/07/17 05:22:38;;;;;;;;;;;;;;;;;;4959659;28;19914;-83
2022/07/17 05:25:04;;;;;;;;;;;;;;;;;;4959946;28;20016;-85
2022/07/17 05:27:30;;;;;;;;;;;;;;;;;;4976261;28;19914;-85
2022/07/17 05:29:55;;;;;;;;;;;;;;;;;;4977423;28;19922;-85
2022/07/17 05:32:21;;;;;;;;;;;;;;;;;;4977739;28;19921;-85
2022/07/17 05:34:46;;;;;;;;;;;;;;;;;;4975775;28;20285;-84
2022/07/17 05:37:12;;;;;;;;;;;;;;;;;;4958854;28;19962;-84
2022/07/17 05:39:39;;;;;;;;;;;;;;;;;;4975029;28;19914;-85
2022/07/17 05:42:05;;;;;;;;;;;;;;;;;;4976179;28;19921;-85
2022/07/17 05:44:30;;;;;;;;;;;;;;;;;;4958160;28;19914;-84
2022/07/17 05:46:56;;;;;;;;;;;;;;;;;;4976003;28;20043;-85
2022/07/17 05:49:21;;;;;;;;;;;;;;;;;;4958897;28;20326;-85
2022/07/17 05:51:47;;;;;;;;;;;;;;;;;;4976005;28;20353;-85
2022/07/17 05:54:12;;;;;;;;;;;;;;;;;;4975714;28;20267;-84
2022/07/17 05:56:37;;;;;;;;;;;;;;;;;;4974869;28;19973;-85
2022/07/17 05:59:03;;;;;;;;;;;;;;;;;;4975601;28;19921;-85
2022/07/17 06:01:28;;;;;;;;;;;;;;;;;;4974977;28;19937;-85
2022/07/17 06:03:54;;;;;;;;;;;;;;;;;;4974658;28;19950;-85
2022/07/17 06:06:21;;;;;;;;;;;;;;;;;;4974429;28;19918;-85
2022/07/17 06:08:46;;;;;;;;;;;;;;;;;;4975836;28;19918;-85
2022/07/17 06:11:11;;;;;;;;;;;;;;;;;;4975947;28;19928;-85
2022/07/17 06:13:37;;;;;;;;;;;;;;;;;;4974285;28;19914;-85
2022/07/17 06:16:02;;;;;;;;;;;;;;;;;;4975475;28;19913;-84
2022/07/17 06:18:28;;;;;;;;;;;;;;;;;;4974771;28;20404;-85
2022/07/17 06:20:53;;;;;;;;;;;;;;;;;;4958193;28;20370;-85
2022/07/17 06:23:19;;;;;;;;;;;;;;;;;;4973791;28;19914;-85
2022/07/17 06:25:44;;;;;;;;;;;;;;;;;;4957940;28;19922;-85
2022/07/17 06:28:10;;;;;;;;;;;;;;;;;;4973829;28;19977;-83
2022/07/17 06:30:35;;;;;;;;;;;;;;;;;;4964982;28;19918;-84
2022/07/17 06:33:01;;;;;;;;;;;;;;;;;;4958945;28;19918;-84
2022/07/17 06:35:26;;;;;;;;;;;;;;;;;;4974692;28;19914;-84
2022/07/17 06:37:52;;;;;;;;;;;;;;;;;;4938996;29;19918;-84
2022/07/17 06:40:17;;;;;;;;;;;;;;;;;;4974079;28;19914;-84
2022/07/17 06:42:43;;;;;;;;;;;;;;;;;;4974846;28;19958;-84
2022/07/17 06:45:08;;;;;;;;;;;;;;;;;;4975926;28;19918;-84
2022/07/17 06:47:34;;;;;;;;;;;;;;;;;;4973751;28;19914;-84
2022/07/17 06:49:59;;;;;;;;;;;;;;;;;;4973368;28;19918;-84
2022/07/17 06:52:25;;;;;;;;;;;;;;;;;;4956926;28;19922;-84
2022/07/17 06:54:51;;;;;;;;;;;;;;;;;;4974441;28;19968;-84
2022/07/17 06:57:16;;;;;;;;;;;;;;;;;;4973375;28;19921;-83
2022/07/17 06:59:42;;;;;;;;;;;;;;;;;;4973144;28;19925;-85
2022/07/17 07:02:07;;;;;;;;;;;;;;;;;;4973114;28;19968;-85
2022/07/17 07:04:32;;;;;;;;;;;;;;;;;;4957197;28;20001;-85
2022/07/17 07:06:58;;;;;;;;;;;;;;;;;;4940915;28;20012;-82
2022/07/17 07:09:25;;;;;;;;;;;;;;;;;;4972766;28;19915;-84
2022/07/17 07:11:51;;;;;;;;;;;;;;;;;;4973179;28;20005;-84
2022/07/17 07:14:16;;;;;;;;;;;;;;;;;;4974047;28;19945;-84
2022/07/17 07:16:42;;;;;;;;;;;;;;;;;;4969546;28;20012;-81
2022/07/17 07:19:07;;;;;;;;;;;;;;;;;;4964558;28;19969;-80
2022/07/17 07:21:33;;;;;;;;;;;;;;;;;;4972738;28;19918;-80
2022/07/17 07:23:58;;;;;;;;;;;;;;;;;;4956837;28;19915;-81
2022/07/17 07:26:24;;;;;;;;;;;;;;;;;;4972869;28;19918;-82
2022/07/17 07:28:49;;;;;;;;;;;;;;;;;;4957202;28;19930;-87
2022/07/17 07:31:16;;;;;;;;;;;;;;;;;;4940638;28;20377;-84
2022/07/17 07:33:42;;;;;;;;;;;;;;;;;;4940720;28;19941;-87
2022/07/17 07:36:07;;;;;;;;;;;;;;;;;;4979687;28;20175;-84
2022/07/17 07:38:33;;;;;;;;;;;;;;;;;;4975032;28;20269;-88
2022/07/17 07:40:59;;;;;;;;;;;;;;;;;;4973800;28;19914;-87
2022/07/17 07:43:24;;;;;;;;;;;;;;;;;;4978824;28;19914;-86
2022/07/17 07:45:50;;;;;;;;;;;;;;;;;;4977723;28;19918;-88
2022/07/17 07:48:15;;;;;;;;;;;;;;;;;;4980597;28;19914;-87
2022/07/17 07:50:41;;;;;;;;;;;;;;;;;;4985553;28;20301;-86
2022/07/17 07:53:06;;;;;;;;;;;;;;;;;;4988725;28;20355;-87
2022/07/17 07:55:32;;;;;;;;;;;;;;;;;;4957699;28;19914;-87
2022/07/17 07:57:58;;;;;;;;;;;;;;;;;;4973987;28;20303;-86
2022/07/17 08:00:23;;;;;;;;;;;;;;;;;;4960957;28;19960;-85
2022/07/17 08:02:49;;;;;;;;;;;;;;;;;;4969095;28;20330;-86
2022/07/17 08:05:14;;;;;;;;;;;;;;;;;;4969052;28;19918;-86
2022/07/17 08:07:40;;;;;;;;;;;;;;;;;;4980647;28;19918;-87
2022/07/17 08:10:05;;;;;;;;;;;;;;;;;;4965826;28;19921;-86
2022/07/17 08:12:30;;;;;;;;;;;;;;;;;;4982027;28;19921;-86
2022/07/17 08:14:56;;;;;;;;;;;;;;;;;;4975732;28;19914;-86
2022/07/17 08:17:21;;;;;;;;;;;;;;;;;;4973416;28;19922;-87
2022/07/17 08:19:47;;;;;;;;;;;;;;;;;;4974325;28;19914;-86
2022/07/17 08:22:12;;;;;;;;;;;;;;;;;;4974043;28;20274;-88
2022/07/17 08:24:37;;;;;;;;;;;;;;;;;;4973170;28;19915;-87
2022/07/17 08:27:03;;;;;;;;;;;;;;;;;;4972527;28;20013;-87
2022/07/17 08:29:28;;;;;;;;;;;;;;;;;;4973603;28;20343;-87
2022/07/17 08:31:55;;;;;;;;;;;;;;;;;;4972849;28;20377;-87
2022/07/17 08:34:20;;;;;;;;;;;;;;;;;;4972827;28;19990;-88
2022/07/17 08:36:46;;;;;;;;;;;;;;;;;;4973234;28;19988;-88
2022/07/17 08:39:11;;;;;;;;;;;;;;;;;;4975121;28;19914;-91
2022/07/17 08:41:37;;;;;;;;;;;;;;;;;;4972383;28;19910;-86
2022/07/17 08:44:02;;;;;;;;;;;;;;;;;;4966944;28;19914;-86
2022/07/17 08:46:29;;;;;;;;;;;;;;;;;;4973150;28;20443;-85
2022/07/17 08:48:55;;;;;;;;;;;;;;;;;;4960284;28;20441;-85
2022/07/17 08:51:21;;;;;;;;;;;;;;;;;;4973004;28;19914;-87
2022/07/17 08:53:46;;;;;;;;;;;;;;;;;;4975984;28;20397;-86
2022/07/17 08:56:11;;;;;;;;;;;;;;;;;;4976817;28;19914;-86
2022/07/17 08:58:37;;;;;;;;;;;;;;;;;;4959181;28;19918;-86
2022/07/17 09:01:02;;;;;;;;;;;;;;;;;;4975534;28;20080;-87
2022/07/17 09:03:28;;;;;;;;;;;;;;;;;;4975262;28;19917;-85
2022/07/17 09:05:53;;;;;;;;;;;;;;;;;;4976805;28;19937;-85
2022/07/17 09:08:19;;;;;;;;;;;;;;;;;;4975424;28;19925;-86
2022/07/17 09:10:45;;;;;;;;;;;;;;;;;;4975337;28;19920;-87
2022/07/17 09:13:10;;;;;;;;;;;;;;;;;;4976288;28;19914;-88
2022/07/17 09:15:36;;;;;;;;;;;;;;;;;;4976285;28;20365;-88
2022/07/17 09:18:02;;;;;;;;;;;;;;;;;;4977160;28;20389;-88
2022/07/17 09:20:27;;;;;;;;;;;;;;;;;;4976246;28;19997;-87
2022/07/17 09:22:53;;;;;;;;;;;;;;;;;;4977148;28;20010;-88
2022/07/17 09:25:18;;;;;;;;;;;;;;;;;;4975654;28;19914;-88
2022/07/17 09:27:43;;;;;;;;;;;;;;;;;;4989392;28;19961;-89
2022/07/17 09:30:12;;;;;;;;;;;;;;;;;;4974799;28;20345;-86
2022/07/17 09:32:37;;;;;;;;;;;;;;;;;;4958860;28;19936;-87
2022/07/17 09:35:03;;;;;;;;;;;;;;;;;;4974865;28;19914;-90
2022/07/17 09:37:28;;;;;;;;;;;;;;;;;;4975594;28;20373;-89
2022/07/17 09:39:54;;;;;;;;;;;;;;;;;;4975228;28;19914;-89
2022/07/17 09:42:19;;;;;;;;;;;;;;;;;;4976198;28;19914;-89
2022/07/17 09:44:44;;;;;;;;;;;;;;;;;;4959119;28;19917;-90
2022/07/17 09:47:11;;;;;;;;;;;;;;;;;;4976052;28;20056;-89
2022/07/17 09:49:36;;;;;;;;;;;;;;;;;;4976791;28;19914;-88
2022/07/17 09:52:02;;;;;;;;;;;;;;;;;;4982072;28;20017;-88
2022/07/17 09:54:28;;;;;;;;;;;;;;;;;;4995524;28;19993;-87
2022/07/17 09:56:53;;;;;;;;;;;;;;;;;;4980704;28;19968;-88
2022/07/17 09:59:18;;;;;;;;;;;;;;;;;;4975281;28;19914;-88
2022/07/17 10:01:44;;;;;;;;;;;;;;;;;;4988704;28;19921;-87
2022/07/17 10:04:10;;;;;;;;;;;;;;;;;;4973053;28;20361;-88
2022/07/17 10:06:35;;;;;;;;;;;;;;;;;;4976477;28;19918;-86
2022/07/17 10:09:02;;;;;;;;;;;;;;;;;;4941287;23;19927;-83
2022/07/17 10:11:28;;;;;;;;;;;;;;;;;;4968635;28;19915;-83
2022/07/17 10:13:53;;;;;;;;;;;;;;;;;;4920515;29;20397;-83
2022/07/17 10:16:19;;;;;;;;;;;;;;;;;;4921752;29;19915;-83
2022/07/17 10:18:45;;;;;;;;;;;;;;;;;;4933585;29;20027;-82
2022/07/17 10:21:10;;;;;;;;;;;;;;;;;;4930519;29;19915;-83
2022/07/17 10:23:36;;;;;;;;;;;;;;;;;;4917815;29;19946;-83
2022/07/17 10:26:01;;;;;;;;;;;;;;;;;;4943339;28;20399;-83
2022/07/17 10:28:27;;;;;;;;;;;;;;;;;;4916638;29;20015;-82
2022/07/17 10:30:53;;;;;;;;;;;;;;;;;;4916393;29;19919;-82
2022/07/17 10:33:19;;;;;;;;;;;;;;;;;;4916183;29;19922;-84
2022/07/17 10:35:45;;;;;;;;;;;;;;;;;;4916922;29;19919;-84
2022/07/17 10:38:13;;;;;;;;;;;;;;;;;;4901035;29;20279;-84
2022/07/17 10:40:39;;;;;;;;;;;;;;;;;;4917201;29;19915;-85
2022/07/17 10:43:05;;;;;;;;;;;;;;;;;;4916971;29;20002;-83
2022/07/17 10:45:33;;;;;;;;;;;;;;;;;;4917028;29;19919;-83
2022/07/17 10:47:58;;;;;;;;;;;;;;;;;;4900748;29;19958;-85
2022/07/17 10:50:24;;;;;;;;;;;;;;;;;;4916499;29;19923;-83
2022/07/17 10:52:49;;;;;;;;;;;;;;;;;;4896992;29;19915;-85
2022/07/17 10:55:15;;;;;;;;;;;;;;;;;;4918610;29;19943;-84
2022/07/17 10:57:40;;;;;;;;;;;;;;;;;;4918288;29;19962;-84
2022/07/17 11:00:06;;;;;;;;;;;;;;;;;;4888362;29;19958;-84
2022/07/17 11:02:31;;;;;;;;;;;;;;;;;;4903101;29;20303;-84
2022/07/17 11:04:56;;;;;;;;;;;;;;;;;;4888281;29;20399;-84
2022/07/17 11:07:22;;;;;;;;;;;;;;;;;;4903973;29;20367;-84
2022/07/17 11:09:47;;;;;;;;;;;;;;;;;;4903192;29;20371;-84
2022/07/17 11:12:13;;;;;;;;;;;;;;;;;;4923290;29;19915;-86
2022/07/17 11:14:38;;;;;;;;;;;;;;;;;;4923863;29;20327;-84
2022/07/17 11:17:04;;;;;;;;;;;;;;;;;;4921203;29;20339;-84
2022/07/17 11:19:32;;;;;;;;;;;;;;;;;;4916082;29;20362;-84
2022/07/17 11:21:58;;;;;;;;;;;;;;;;;;4916668;29;19934;-84
2022/07/17 11:24:25;;;;;;;;;;;;;;;;;;4917796;29;20395;-85
2022/07/17 11:26:51;;;;;;;;;;;;;;;;;;4900826;29;19926;-84
2022/07/17 11:29:17;;;;;;;;;;;;;;;;;;4932532;29;20379;-83
2022/07/17 11:31:42;;;;;;;;;;;;;;;;;;4919546;29;20371;-84
2022/07/17 11:34:09;;;;;;;;;;;;;;;;;;4931463;29;19919;-84
2022/07/17 11:36:35;;;;;;;;;;;;;;;;;;4916812;29;19915;-81
2022/07/17 11:39:00;;;;;;;;;;;;;;;;;;4915002;29;19915;-82
2022/07/17 11:41:26;;;;;;;;;;;;;;;;;;4884070;29;19926;-82
2022/07/17 11:43:51;;;;;;;;;;;;;;;;;;4916246;29;19918;-82
2022/07/17 11:46:17;;;;;;;;;;;;;;;;;;4927436;29;19923;-81
2022/07/17 11:48:42;;;;;;;;;;;;;;;;;;4933910;29;20335;-84
2022/07/17 11:51:08;;;;;;;;;;;;;;;;;;4920105;29;20352;-84
2022/07/17 11:53:33;;;;;;;;;;;;;;;;;;4932801;29;20448;-84
2022/07/17 11:55:59;;;;;;;;;;;;;;;;;;4886699;29;19958;-83
2022/07/17 11:58:25;;;;;;;;;;;;;;;;;;4916669;29;19922;-82
2022/07/17 12:00:50;;;;;;;;;;;;;;;;;;4917881;29;19911;-83
2022/07/17 12:03:16;;;;;;;;;;;;;;;;;;4899163;29;20479;-83
2022/07/17 12:05:41;;;;;;;;;;;;;;;;;;4917178;29;19948;-81
2022/07/17 12:08:07;;;;;;;;;;;;;;;;;;4922352;29;19925;-85
2022/07/17 12:10:32;;;;;;;;;;;;;;;;;;4927376;29;20439;-85
2022/07/17 12:12:58;;;;;;;;;;;;;;;;;;4894265;29;20318;-80
2022/07/17 12:15:23;;;;;;;;;;;;;;;;;;4909536;29;19915;-83
2022/07/17 12:17:49;;;;;;;;;;;;;;;;;;4922014;29;20283;-82
2022/07/17 12:20:15;;;;;;;;;;;;;;;;;;4920427;29;19911;-83
2022/07/17 12:22:40;;;;;;;;;;;;;;;;;;4905891;29;20018;-83
2022/07/17 12:25:06;;;;;;;;;;;;;;;;;;4901811;29;20366;-81
2022/07/17 12:27:31;;;;;;;;;;;;;;;;;;4918681;29;20374;-82
2022/07/17 12:29:58;;;;;;;;;;;;;;;;;;4888388;29;20271;-81
2022/07/17 12:32:23;;;;;;;;;;;;;;;;;;4889492;29;19911;-81
2022/07/17 12:34:49;;;;;;;;;;;;;;;;;;4921777;29;19938;-80
2022/07/17 12:37:14;;;;;;;;;;;;;;;;;;4910502;29;19922;-83
2022/07/17 12:39:40;;;;;;;;;;;;;;;;;;4927113;29;19943;-88
2022/07/17 12:42:07;;;;;;;;;;;;;;;;;;4909701;29;19991;-87
2022/07/17 12:44:33;;;;;;;;;;;;;;;;;;4894898;29;19915;-84
2022/07/17 12:46:58;;;;;;;;;;;;;;;;;;4927839;29;19957;-87
2022/07/17 12:49:25;;;;;;;;;;;;;;;;;;4929861;29;19915;-84
2022/07/17 12:51:50;;;;;;;;;;;;;;;;;;4892827;29;19922;-82
2022/07/17 12:54:16;;;;;;;;;;;;;;;;;;4889690;29;19950;-82
2022/07/17 12:56:42;;;;;;;;;;;;;;;;;;4922109;29;20155;-83
2022/07/17 12:59:07;;;;;;;;;;;;;;;;;;4922135;29;19915;-84
2022/07/17 13:01:33;;;;;;;;;;;;;;;;;;4921022;29;20294;-85
2022/07/17 13:03:58;;;;;;;;;;;;;;;;;;4918882;29;19937;-83
2022/07/17 13:06:24;;;;;;;;;;;;;;;;;;4934063;29;19987;-83
2022/07/17 13:08:50;;;;;;;;;;;;;;;;;;4933345;29;19919;-82
2022/07/17 13:11:15;;;;;;;;;;;;;;;;;;4917862;29;19919;-81
2022/07/17 13:13:41;;;;;;;;;;;;;;;;;;4919066;29;19938;-82
2022/07/17 13:16:07;;;;;;;;;;;;;;;;;;4921635;29;20210;-83
2022/07/17 13:18:32;;;;;;;;;;;;;;;;;;4919500;29;19955;-84
2022/07/17 13:20:58;;;;;;;;;;;;;;;;;;4919155;29;19926;-84
2022/07/17 13:23:23;;;;;;;;;;;;;;;;;;4918918;29;19922;-84
2022/07/17 13:25:49;;;;;;;;;;;;;;;;;;4886900;29;20384;-82
2022/07/17 13:28:14;;;;;;;;;;;;;;;;;;4918216;29;20347;-82
2022/07/17 13:30:40;;;;;;;;;;;;;;;;;;4918177;29;19915;-83
2022/07/17 13:33:05;;;;;;;;;;;;;;;;;;4918135;29;20569;-83
2022/07/17 13:35:31;;;;;;;;;;;;;;;;;;4903526;29;20280;-84
2022/07/17 13:37:57;;;;;;;;;;;;;;;;;;4919750;29;19915;-83
2022/07/17 13:40:24;;;;;;;;;;;;;;;;;;4889032;29;20263;-83
2022/07/17 13:42:50;;;;;;;;;;;;;;;;;;4919097;29;19922;-81
2022/07/17 13:45:15;;;;;;;;;;;;;;;;;;4904615;29;20327;-79
2022/07/17 13:47:41;;;;;;;;;;;;;;;;;;4919590;29;19915;-81
2022/07/17 13:50:06;;;;;;;;;;;;;;;;;;4918455;29;19979;-81
2022/07/17 13:52:31;;;;;;;;;;;;;;;;;;4918912;29;20367;-81
2022/07/17 13:54:57;;;;;;;;;;;;;;;;;;4935390;29;19938;-80
2022/07/17 13:57:22;;;;;;;;;;;;;;;;;;4917831;29;20025;-81
2022/07/17 13:59:48;;;;;;;;;;;;;;;;;;4918170;29;19979;-81
2022/07/17 14:02:13;;;;;;;;;;;;;;;;;;4936131;29;19922;-81
2022/07/17 14:04:39;;;;;;;;;;;;;;;;;;4921393;29;20434;-80
2022/07/17 14:07:05;;;;;;;;;;;;;;;;;;4918506;29;19926;-81
2022/07/17 14:09:30;;;;;;;;;;;;;;;;;;4900878;29;20278;-81
2022/07/17 14:11:56;;;;;;;;;;;;;;;;;;4917925;29;19930;-80
2022/07/17 14:14:21;;;;;;;;;;;;;;;;;;4923815;29;20264;-81
2022/07/17 14:16:47;;;;;;;;;;;;;;;;;;4940770;29;19915;-82
2022/07/17 14:19:12;;;;;;;;;;;;;;;;;;4917089;29;20005;-80
2022/07/17 14:21:38;;;;;;;;;;;;;;;;;;4885789;29;19919;-81
2022/07/17 14:24:03;;;;;;;;;;;;;;;;;;4932647;29;19915;-81
2022/07/17 14:26:29;;;;;;;;;;;;;;;;;;4916936;29;19990;-81
2022/07/17 14:28:55;;;;;;;;;;;;;;;;;;4901167;29;19972;-82
2022/07/17 14:31:20;;;;;;;;;;;;;;;;;;4918187;29;19938;-82
2022/07/17 14:33:46;;;;;;;;;;;;;;;;;;4918748;29;19954;-82
2022/07/17 14:36:12;;;;;;;;;;;;;;;;;;4917418;29;19998;-80
2022/07/17 14:38:37;;;;;;;;;;;;;;;;;;4916809;29;20047;-80
2022/07/17 14:41:03;;;;;;;;;;;;;;;;;;4917651;29;19970;-81
2022/07/17 14:43:29;;;;;;;;;;;;;;;;;;4900398;29;19915;-80
2022/07/17 14:45:54;;;;;;;;;;;;;;;;;;4931624;29;19920;-82
2022/07/17 14:48:20;;;;;;;;;;;;;;;;;;4923440;29;19915;-80
2022/07/17 14:50:46;;;;;;;;;;;;;;;;;;4916059;29;19948;-82
2022/07/17 14:53:11;;;;;;;;;;;;;;;;;;4916385;29;19923;-82
2022/07/17 14:55:36;;;;;;;;;;;;;;;;;;4932214;29;19915;-81
2022/07/17 14:58:04;;;;;;;;;;;;;;;;;;4916006;29;19954;-81
2022/07/17 15:00:30;;;;;;;;;;;;;;;;;;4885071;29;19962;-81
2022/07/17 15:02:56;;;;;;;;;;;;;;;;;;4912526;29;19915;-81
2022/07/17 15:05:21;;;;;;;;;;;;;;;;;;4916150;29;19927;-81
2022/07/17 15:07:47;;;;;;;;;;;;;;;;;;4915560;29;20032;-82
2022/07/17 15:10:12;;;;;;;;;;;;;;;;;;4916844;29;19921;-82
2022/07/17 15:12:38;;;;;;;;;;;;;;;;;;4884258;29;19915;-81
2022/07/17 15:15:03;;;;;;;;;;;;;;;;;;4931514;29;19911;-81
2022/07/17 15:17:29;;;;;;;;;;;;;;;;;;4931658;29;19922;-81
2022/07/17 15:19:55;;;;;;;;;;;;;;;;;;4899573;29;19915;-81
2022/07/17 15:22:20;;;;;;;;;;;;;;;;;;4915968;29;19922;-81
2022/07/17 15:24:46;;;;;;;;;;;;;;;;;;4915573;29;19915;-81
2022/07/17 15:27:11;;;;;;;;;;;;;;;;;;4915459;29;19983;-81
2022/07/17 15:29:37;;;;;;;;;;;;;;;;;;4932080;29;19922;-81
2022/07/17 15:32:02;;;;;;;;;;;;;;;;;;4916522;29;19979;-81
2022/07/17 15:34:28;;;;;;;;;;;;;;;;;;4916584;29;19915;-81
2022/07/17 15:36:53;;;;;;;;;;;;;;;;;;4899976;29;19950;-80
2022/07/17 15:39:19;;;;;;;;;;;;;;;;;;4946077;28;19915;-82
2022/07/17 15:41:45;;;;;;;;;;;;;;;;;;4900703;29;19966;-81
2022/07/17 15:44:10;;;;;;;;;;;;;;;;;;4916700;29;19923;-81
2022/07/17 15:46:36;;;;;;;;;;;;;;;;;;4915643;29;19926;-82
2022/07/17 15:49:01;;;;;;;;;;;;;;;;;;4931104;29;19958;-82
2022/07/17 15:51:27;;;;;;;;;;;;;;;;;;4916331;29;20000;-82
2022/07/17 15:53:53;;;;;;;;;;;;;;;;;;4927673;29;19922;-82
2022/07/17 15:56:18;;;;;;;;;;;;;;;;;;4915155;29;19916;-82
2022/07/17 15:58:44;;;;;;;;;;;;;;;;;;4915262;29;19930;-81
2022/07/17 16:01:13;;;;;;;;;;;;;;;;;;4929740;29;19919;-81
2022/07/17 16:03:38;;;;;;;;;;;;;;;;;;4915055;29;19937;-82
2022/07/17 16:06:04;;;;;;;;;;;;;;;;;;4914770;29;20006;-82
2022/07/17 16:08:33;;;;;;;;;;;;;;;;;;4896022;29;20298;-81
2022/07/17 16:10:59;;;;;;;;;;;;;;;;;;4912665;29;20017;-81
2022/07/17 16:13:24;;;;;;;;;;;;;;;;;;4914544;29;20022;-80
2022/07/17 16:15:51;;;;;;;;;;;;;;;;;;4915142;29;19911;-81
2022/07/17 16:18:17;;;;;;;;;;;;;;;;;;4915998;29;19922;-82
2022/07/17 16:20:45;;;;;;;;;;;;;;;;;;4915329;29;19915;-81
2022/07/17 16:23:10;;;;;;;;;;;;;;;;;;4930492;29;19911;-81
2022/07/17 16:25:36;;;;;;;;;;;;;;;;;;4915715;29;19929;-81
2022/07/17 16:28:01;;;;;;;;;;;;;;;;;;4914336;29;19915;-82
2022/07/17 16:30:27;;;;;;;;;;;;;;;;;;4898793;29;19915;-82
2022/07/17 16:32:52;;;;;;;;;;;;;;;;;;4914481;29;19919;-82
2022/07/17 16:35:20;;;;;;;;;;;;;;;;;;4930059;29;19911;-82
2022/07/17 16:37:46;;;;;;;;;;;;;;;;;;4914388;29;20473;-82